sensor_id;sensor_type;location;lat;lon;timestamp;temperature;humidity
53520;DHT22;39397;53.204;5.778;2023-05-02T00:00:13;10.00;99.90
53520;DHT22;39397;53.204;5.778;2023-05-02T00:02:42;9.90;99.90
53520;DHT22;39397;53.204;5.778;2023-05-02T00:05:07;9.90;99.90
53520;DHT22;39397;53.204;5.778;2023-05-02T00:07:33;9.80;99.90
53520;DHT22;39397;53.204;5.778;2023-05-02T00:10:00;9.80;99.90
53520;DHT22;39397;53.204;5.778;2023-05-02T00:12:27;9.90;99.90
53520;DHT22;39397;53.204;5.778;2023-05-02T00:14:52;9.80;99.90
53520;DHT22;39397;53.204;5.778;2023-05-02T00:17:19;9.90;99.90
53520;DHT22;39397;53.204;5.778;2023-05-02T00:19:45;9.90;99.90
53520;DHT22;39397;53.204;5.778;2023-05-02T00:22:11;10.30;99.90
53520;DHT22;39397;53.204;5.778;2023-05-02T00:24:37;9.90;99.90
53520;DHT22;39397;53.204;5.778;2023-05-02T00:27:03;9.80;99.90
53520;DHT22;39397;53.204;5.778;2023-05-02T00:29:29;9.80;99.90
53520;DHT22;39397;53.204;5.778;2023-05-02T00:31:55;10.10;99.90
53520;DHT22;39397;53.204;5.778;2023-05-02T00:34:21;9.80;99.90
53520;DHT22;39397;53.204;5.778;2023-05-02T00:36:47;10.70;99.90
53520;DHT22;39397;53.204;5.778;2023-05-02T00:39:13;9.80;99.90
53520;DHT22;39397;53.204;5.778;2023-05-02T00:41:39;9.90;99.90
53520;DHT22;39397;53.204;5.778;2023-05-02T00:44:04;9.80;99.90
53520;DHT22;39397;53.204;5.778;2023-05-02T00:46:30;9.90;99.90
53520;DHT22;39397;53.204;5.778;2023-05-02T00:48:56;9.80;99.90
53520;DHT22;39397;53.204;5.778;2023-05-02T00:51:22;9.60;99.90
53520;DHT22;39397;53.204;5.778;2023-05-02T00:53:48;9.70;99.90
53520;DHT22;39397;53.204;5.778;2023-05-02T00:56:14;9.60;99.90
53520;DHT22;39397;53.204;5.778;2023-05-02T00:58:40;9.40;99.90
53520;DHT22;39397;53.204;5.778;2023-05-02T01:11:53;9.20;99.90
53520;DHT22;39397;53.204;5.778;2023-05-02T01:14:23;9.10;99.90
53520;DHT22;39397;53.204;5.778;2023-05-02T01:16:51;9.00;99.90
53520;DHT22;39397;53.204;5.778;2023-05-02T01:19:24;9.10;99.90
53520;DHT22;39397;53.204;5.778;2023-05-02T01:21:55;9.00;99.90
53520;DHT22;39397;53.204;5.778;2023-05-02T01:24:25;8.90;99.90
53520;DHT22;39397;53.204;5.778;2023-05-02T01:27:06;9.00;99.90
53520;DHT22;39397;53.204;5.778;2023-05-02T01:29:33;8.90;99.90
53520;DHT22;39397;53.204;5.778;2023-05-02T01:32:02;10.20;99.90
53520;DHT22;39397;53.204;5.778;2023-05-02T01:34:28;8.90;99.90
53520;DHT22;39397;53.204;5.778;2023-05-02T01:36:56;8.80;99.90
53520;DHT22;39397;53.204;5.778;2023-05-02T01:39:24;8.90;99.90
53520;DHT22;39397;53.204;5.778;2023-05-02T01:41:53;8.70;99.90
53520;DHT22;39397;53.204;5.778;2023-05-02T01:44:22;9.50;99.90
53520;DHT22;39397;53.204;5.778;2023-05-02T01:46:49;8.60;99.90
53520;DHT22;39397;53.204;5.778;2023-05-02T01:49:17;8.60;99.90
53520;DHT22;39397;53.204;5.778;2023-05-02T01:51:46;8.60;99.90
53520;DHT22;39397;53.204;5.778;2023-05-02T01:54:12;8.50;99.90
53520;DHT22;39397;53.204;5.778;2023-05-02T01:56:40;10.00;99.90
53520;DHT22;39397;53.204;5.778;2023-05-02T01:59:10;8.60;99.90
53520;DHT22;39397;53.204;5.778;2023-05-02T02:01:37;8.50;99.90
53520;DHT22;39397;53.204;5.778;2023-05-02T02:04:05;8.50;99.90
53520;DHT22;39397;53.204;5.778;2023-05-02T02:06:31;8.40;99.90
53520;DHT22;39397;53.204;5.778;2023-05-02T02:08:57;9.10;99.90
53520;DHT22;39397;53.204;5.778;2023-05-02T02:11:26;8.70;99.90
53520;DHT22;39397;53.204;5.778;2023-05-02T02:14:04;9.40;99.90
53520;DHT22;39397;53.204;5.778;2023-05-02T02:16:33;9.10;99.90
53520;DHT22;39397;53.204;5.778;2023-05-02T02:19:05;8.30;99.90
53520;DHT22;39397;53.204;5.778;2023-05-02T02:21:33;8.30;99.90
53520;DHT22;39397;53.204;5.778;2023-05-02T02:24:01;8.30;99.90
53520;DHT22;39397;53.204;5.778;2023-05-02T02:26:27;9.00;99.90
53520;DHT22;39397;53.204;5.778;2023-05-02T02:28:54;8.80;99.90
53520;DHT22;39397;53.204;5.778;2023-05-02T02:31:20;8.80;99.90
53520;DHT22;39397;53.204;5.778;2023-05-02T02:33:46;8.20;99.90
53520;DHT22;39397;53.204;5.778;2023-05-02T02:36:20;8.30;99.90
53520;DHT22;39397;53.204;5.778;2023-05-02T02:39:09;8.20;99.90
53520;DHT22;39397;53.204;5.778;2023-05-02T02:42:02;8.10;99.90
53520;DHT22;39397;53.204;5.778;2023-05-02T02:44:51;8.20;99.90
53520;DHT22;39397;53.204;5.778;2023-05-02T02:47:26;8.10;99.90
53520;DHT22;39397;53.204;5.778;2023-05-02T02:52:24;8.10;99.90
53520;DHT22;39397;53.204;5.778;2023-05-02T02:55:07;8.10;99.90
53520;DHT22;39397;53.204;5.778;2023-05-02T02:57:40;8.00;99.90
53520;DHT22;39397;53.204;5.778;2023-05-02T03:00:21;8.30;99.90
53520;DHT22;39397;53.204;5.778;2023-05-02T03:02:49;8.10;99.90
53520;DHT22;39397;53.204;5.778;2023-05-02T03:05:18;8.10;99.90
53520;DHT22;39397;53.204;5.778;2023-05-02T03:07:45;8.20;99.90
53520;DHT22;39397;53.204;5.778;2023-05-02T03:10:11;7.90;99.90
53520;DHT22;39397;53.204;5.778;2023-05-02T03:12:37;7.90;99.90
53520;DHT22;39397;53.204;5.778;2023-05-02T03:15:22;7.90;99.90
53520;DHT22;39397;53.204;5.778;2023-05-02T03:17:49;7.90;99.90
53520;DHT22;39397;53.204;5.778;2023-05-02T03:20:15;9.00;99.90
53520;DHT22;39397;53.204;5.778;2023-05-02T03:22:41;7.90;99.90
53520;DHT22;39397;53.204;5.778;2023-05-02T03:25:07;8.80;99.90
53520;DHT22;39397;53.204;5.778;2023-05-02T03:27:33;7.90;99.90
53520;DHT22;39397;53.204;5.778;2023-05-02T03:29:59;7.90;99.90
53520;DHT22;39397;53.204;5.778;2023-05-02T03:32:24;7.90;99.90
53520;DHT22;39397;53.204;5.778;2023-05-02T03:34:51;9.20;99.90
53520;DHT22;39397;53.204;5.778;2023-05-02T03:37:16;8.00;99.90
53520;DHT22;39397;53.204;5.778;2023-05-02T03:39:43;8.00;99.90
53520;DHT22;39397;53.204;5.778;2023-05-02T03:42:09;7.90;99.90
53520;DHT22;39397;53.204;5.778;2023-05-02T03:44:34;7.80;99.90
53520;DHT22;39397;53.204;5.778;2023-05-02T03:47:00;7.80;99.90
53520;DHT22;39397;53.204;5.778;2023-05-02T03:49:27;8.00;99.90
53520;DHT22;39397;53.204;5.778;2023-05-02T03:51:53;7.80;99.90
53520;DHT22;39397;53.204;5.778;2023-05-02T03:54:18;7.70;99.90
53520;DHT22;39397;53.204;5.778;2023-05-02T03:56:44;8.90;99.90
53520;DHT22;39397;53.204;5.778;2023-05-02T03:59:11;8.30;99.90
53520;DHT22;39397;53.204;5.778;2023-05-02T04:01:37;7.90;99.90
53520;DHT22;39397;53.204;5.778;2023-05-02T04:04:03;7.80;99.90
53520;DHT22;39397;53.204;5.778;2023-05-02T04:06:29;7.50;99.90
53520;DHT22;39397;53.204;5.778;2023-05-02T04:08:56;7.70;99.90
53520;DHT22;39397;53.204;5.778;2023-05-02T04:11:22;7.60;99.90
53520;DHT22;39397;53.204;5.778;2023-05-02T04:13:48;7.60;99.90
53520;DHT22;39397;53.204;5.778;2023-05-02T04:16:14;8.50;99.90
53520;DHT22;39397;53.204;5.778;2023-05-02T04:18:39;7.60;99.90
53520;DHT22;39397;53.204;5.778;2023-05-02T04:21:06;7.50;99.90
53520;DHT22;39397;53.204;5.778;2023-05-02T04:23:34;7.30;99.90
53520;DHT22;39397;53.204;5.778;2023-05-02T04:25:59;7.40;99.90
53520;DHT22;39397;53.204;5.778;2023-05-02T04:28:25;7.40;99.90
53520;DHT22;39397;53.204;5.778;2023-05-02T04:30:51;7.60;99.90
53520;DHT22;39397;53.204;5.778;2023-05-02T04:33:17;7.30;99.90
53520;DHT22;39397;53.204;5.778;2023-05-02T04:35:45;8.60;99.90
53520;DHT22;39397;53.204;5.778;2023-05-02T04:38:11;7.50;99.90
53520;DHT22;39397;53.204;5.778;2023-05-02T04:40:37;7.50;99.90
53520;DHT22;39397;53.204;5.778;2023-05-02T04:43:02;7.60;99.90
53520;DHT22;39397;53.204;5.778;2023-05-02T04:45:28;7.50;99.90
53520;DHT22;39397;53.204;5.778;2023-05-02T04:47:54;7.60;99.90
53520;DHT22;39397;53.204;5.778;2023-05-02T04:50:19;7.70;99.90
53520;DHT22;39397;53.204;5.778;2023-05-02T04:52:45;7.70;99.90
53520;DHT22;39397;53.204;5.778;2023-05-02T04:55:11;7.80;99.90
53520;DHT22;39397;53.204;5.778;2023-05-02T04:57:37;7.60;99.90
53520;DHT22;39397;53.204;5.778;2023-05-02T05:00:05;8.60;99.90
53520;DHT22;39397;53.204;5.778;2023-05-02T05:02:31;7.70;99.90
53520;DHT22;39397;53.204;5.778;2023-05-02T05:04:56;7.90;99.90
53520;DHT22;39397;53.204;5.778;2023-05-02T05:07:22;8.00;99.90
53520;DHT22;39397;53.204;5.778;2023-05-02T05:09:48;8.10;99.90
53520;DHT22;39397;53.204;5.778;2023-05-02T05:12:13;7.60;99.90
53520;DHT22;39397;53.204;5.778;2023-05-02T05:14:42;7.60;99.90
53520;DHT22;39397;53.204;5.778;2023-05-02T05:17:08;8.40;99.90
53520;DHT22;39397;53.204;5.778;2023-05-02T05:19:34;8.20;99.90
53520;DHT22;39397;53.204;5.778;2023-05-02T05:22:00;7.80;99.90
53520;DHT22;39397;53.204;5.778;2023-05-02T05:24:25;7.70;99.90
53520;DHT22;39397;53.204;5.778;2023-05-02T05:26:51;7.70;99.90
53520;DHT22;39397;53.204;5.778;2023-05-02T05:29:17;8.60;99.90
53520;DHT22;39397;53.204;5.778;2023-05-02T05:31:43;7.80;99.90
53520;DHT22;39397;53.204;5.778;2023-05-02T05:34:09;8.30;99.90
53520;DHT22;39397;53.204;5.778;2023-05-02T05:36:35;9.00;99.90
53520;DHT22;39397;53.204;5.778;2023-05-02T05:39:01;7.80;99.90
53520;DHT22;39397;53.204;5.778;2023-05-02T05:41:27;7.90;99.90
53520;DHT22;39397;53.204;5.778;2023-05-02T05:43:53;7.90;99.90
53520;DHT22;39397;53.204;5.778;2023-05-02T05:46:20;7.90;99.90
53520;DHT22;39397;53.204;5.778;2023-05-02T05:48:46;8.00;99.90
53520;DHT22;39397;53.204;5.778;2023-05-02T05:51:12;8.50;99.90
53520;DHT22;39397;53.204;5.778;2023-05-02T05:53:37;8.60;99.90
53520;DHT22;39397;53.204;5.778;2023-05-02T05:56:12;8.00;99.90
53520;DHT22;39397;53.204;5.778;2023-05-02T05:58:38;8.00;99.90
53520;DHT22;39397;53.204;5.778;2023-05-02T06:01:04;8.00;99.90
53520;DHT22;39397;53.204;5.778;2023-05-02T06:03:30;8.50;99.90
53520;DHT22;39397;53.204;5.778;2023-05-02T06:05:56;8.20;99.90
53520;DHT22;39397;53.204;5.778;2023-05-02T06:08:22;8.30;99.90
53520;DHT22;39397;53.204;5.778;2023-05-02T06:10:48;8.60;99.90
53520;DHT22;39397;53.204;5.778;2023-05-02T06:13:13;8.20;99.90
53520;DHT22;39397;53.204;5.778;2023-05-02T06:15:39;8.30;99.90
53520;DHT22;39397;53.204;5.778;2023-05-02T06:18:05;8.30;99.90
53520;DHT22;39397;53.204;5.778;2023-05-02T06:20:31;8.30;99.90
53520;DHT22;39397;53.204;5.778;2023-05-02T06:22:57;8.40;99.90
53520;DHT22;39397;53.204;5.778;2023-05-02T06:25:22;8.40;99.90
53520;DHT22;39397;53.204;5.778;2023-05-02T06:27:48;9.10;99.90
53520;DHT22;39397;53.204;5.778;2023-05-02T06:30:14;8.50;99.90
53520;DHT22;39397;53.204;5.778;2023-05-02T06:32:40;8.50;99.90
53520;DHT22;39397;53.204;5.778;2023-05-02T06:35:09;8.70;99.90
53520;DHT22;39397;53.204;5.778;2023-05-02T06:37:35;8.80;99.90
53520;DHT22;39397;53.204;5.778;2023-05-02T06:40:01;9.00;99.90
53520;DHT22;39397;53.204;5.778;2023-05-02T06:42:27;8.80;99.90
53520;DHT22;39397;53.204;5.778;2023-05-02T06:44:54;8.80;99.90
53520;DHT22;39397;53.204;5.778;2023-05-02T06:47:20;8.90;99.90
53520;DHT22;39397;53.204;5.778;2023-05-02T06:49:50;9.40;99.90
53520;DHT22;39397;53.204;5.778;2023-05-02T06:52:15;9.00;99.90
53520;DHT22;39397;53.204;5.778;2023-05-02T06:54:41;9.10;99.90
53520;DHT22;39397;53.204;5.778;2023-05-02T06:57:10;9.80;99.90
53520;DHT22;39397;53.204;5.778;2023-05-02T06:59:35;9.20;99.90
53520;DHT22;39397;53.204;5.778;2023-05-02T07:02:02;9.40;99.90
53520;DHT22;39397;53.204;5.778;2023-05-02T07:04:27;9.60;99.90
53520;DHT22;39397;53.204;5.778;2023-05-02T07:06:53;10.70;99.90
53520;DHT22;39397;53.204;5.778;2023-05-02T07:09:19;9.80;99.90
53520;DHT22;39397;53.204;5.778;2023-05-02T07:11:45;9.90;99.90
53520;DHT22;39397;53.204;5.778;2023-05-02T07:14:10;10.10;99.90
53520;DHT22;39397;53.204;5.778;2023-05-02T07:16:36;9.60;99.90
53520;DHT22;39397;53.204;5.778;2023-05-02T07:19:02;9.70;99.90
53520;DHT22;39397;53.204;5.778;2023-05-02T07:21:31;9.80;99.90
53520;DHT22;39397;53.204;5.778;2023-05-02T07:23:57;9.70;99.90
53520;DHT22;39397;53.204;5.778;2023-05-02T07:26:23;9.50;99.90
53520;DHT22;39397;53.204;5.778;2023-05-02T07:28:51;9.40;99.90
53520;DHT22;39397;53.204;5.778;2023-05-02T07:31:17;9.60;99.90
53520;DHT22;39397;53.204;5.778;2023-05-02T07:33:44;9.60;99.90
53520;DHT22;39397;53.204;5.778;2023-05-02T07:36:10;9.70;99.90
53520;DHT22;39397;53.204;5.778;2023-05-02T07:38:36;9.70;99.90
53520;DHT22;39397;53.204;5.778;2023-05-02T07:41:02;9.70;99.90
53520;DHT22;39397;53.204;5.778;2023-05-02T07:43:27;9.60;99.90
53520;DHT22;39397;53.204;5.778;2023-05-02T07:45:54;9.70;99.90
53520;DHT22;39397;53.204;5.778;2023-05-02T07:48:20;9.80;99.90
53520;DHT22;39397;53.204;5.778;2023-05-02T07:50:46;9.80;99.90
53520;DHT22;39397;53.204;5.778;2023-05-02T07:53:12;9.90;99.20
53520;DHT22;39397;53.204;5.778;2023-05-02T07:55:37;10.00;98.60
53520;DHT22;39397;53.204;5.778;2023-05-02T07:58:03;9.90;98.10
53520;DHT22;39397;53.204;5.778;2023-05-02T08:00:29;9.80;98.10
53520;DHT22;39397;53.204;5.778;2023-05-02T08:02:55;9.80;97.80
53520;DHT22;39397;53.204;5.778;2023-05-02T08:05:21;9.70;97.70
53520;DHT22;39397;53.204;5.778;2023-05-02T08:07:47;9.80;97.80
53520;DHT22;39397;53.204;5.778;2023-05-02T08:10:12;11.80;98.50
53520;DHT22;39397;53.204;5.778;2023-05-02T08:12:39;11.10;98.50
53520;DHT22;39397;53.204;5.778;2023-05-02T08:15:10;9.80;98.50
53520;DHT22;39397;53.204;5.778;2023-05-02T08:17:37;9.90;97.40
53520;DHT22;39397;53.204;5.778;2023-05-02T08:20:03;10.00;97.60
53520;DHT22;39397;53.204;5.778;2023-05-02T08:22:28;10.00;97.00
53520;DHT22;39397;53.204;5.778;2023-05-02T08:24:54;10.10;96.90
53520;DHT22;39397;53.204;5.778;2023-05-02T08:27:20;10.20;96.10
53520;DHT22;39397;53.204;5.778;2023-05-02T08:29:47;10.00;95.90
53520;DHT22;39397;53.204;5.778;2023-05-02T08:32:12;10.00;95.90
53520;DHT22;39397;53.204;5.778;2023-05-02T08:34:38;10.10;95.90
53520;DHT22;39397;53.204;5.778;2023-05-02T08:37:09;10.20;95.90
53520;DHT22;39397;53.204;5.778;2023-05-02T08:39:36;10.10;96.10
53520;DHT22;39397;53.204;5.778;2023-05-02T08:42:06;10.30;95.80
53520;DHT22;39397;53.204;5.778;2023-05-02T08:44:32;10.10;95.60
53520;DHT22;39397;53.204;5.778;2023-05-02T08:46:59;10.10;96.40
53520;DHT22;39397;53.204;5.778;2023-05-02T08:49:29;10.00;96.70
53520;DHT22;39397;53.204;5.778;2023-05-02T08:51:59;10.10;96.40
53520;DHT22;39397;53.204;5.778;2023-05-02T08:54:25;9.90;96.80
53520;DHT22;39397;53.204;5.778;2023-05-02T08:56:55;10.10;96.90
53520;DHT22;39397;53.204;5.778;2023-05-02T08:59:21;10.20;96.90
53520;DHT22;39397;53.204;5.778;2023-05-02T09:01:48;10.40;96.50
53520;DHT22;39397;53.204;5.778;2023-05-02T09:04:20;10.50;95.50
53520;DHT22;39397;53.204;5.778;2023-05-02T09:06:48;10.70;94.90
53520;DHT22;39397;53.204;5.778;2023-05-02T09:09:13;10.70;95.20
53520;DHT22;39397;53.204;5.778;2023-05-02T09:11:39;10.80;95.20
53520;DHT22;39397;53.204;5.778;2023-05-02T09:14:16;10.90;94.50
53520;DHT22;39397;53.204;5.778;2023-05-02T09:16:41;10.80;94.80
53520;DHT22;39397;53.204;5.778;2023-05-02T09:19:07;11.10;94.50
53520;DHT22;39397;53.204;5.778;2023-05-02T09:21:38;11.10;94.90
53520;DHT22;39397;53.204;5.778;2023-05-02T09:24:17;11.20;94.50
53520;DHT22;39397;53.204;5.778;2023-05-02T09:26:59;11.30;93.90
53520;DHT22;39397;53.204;5.778;2023-05-02T09:29:26;11.20;93.00
53520;DHT22;39397;53.204;5.778;2023-05-02T09:31:53;11.00;94.00
53520;DHT22;39397;53.204;5.778;2023-05-02T09:34:19;11.20;93.60
53520;DHT22;39397;53.204;5.778;2023-05-02T09:36:47;11.10;94.00
53520;DHT22;39397;53.204;5.778;2023-05-02T09:39:17;11.20;93.70
53520;DHT22;39397;53.204;5.778;2023-05-02T09:41:45;11.20;93.60
53520;DHT22;39397;53.204;5.778;2023-05-02T09:44:15;11.00;93.70
53520;DHT22;39397;53.204;5.778;2023-05-02T09:46:51;10.90;93.60
53520;DHT22;39397;53.204;5.778;2023-05-02T09:49:17;11.00;93.80
53520;DHT22;39397;53.204;5.778;2023-05-02T09:51:44;10.90;93.90
53520;DHT22;39397;53.204;5.778;2023-05-02T09:54:11;11.20;93.60
53520;DHT22;39397;53.204;5.778;2023-05-02T09:56:53;11.20;93.60
53520;DHT22;39397;53.204;5.778;2023-05-02T09:59:21;11.20;93.50
53520;DHT22;39397;53.204;5.778;2023-05-02T10:01:57;11.10;93.00
53520;DHT22;39397;53.204;5.778;2023-05-02T10:04:24;11.10;93.40
53520;DHT22;39397;53.204;5.778;2023-05-02T10:06:53;11.20;93.00
53520;DHT22;39397;53.204;5.778;2023-05-02T10:09:21;11.20;93.40
53520;DHT22;39397;53.204;5.778;2023-05-02T10:11:51;11.40;92.80
53520;DHT22;39397;53.204;5.778;2023-05-02T10:14:19;11.30;93.50
53520;DHT22;39397;53.204;5.778;2023-05-02T10:17:03;11.40;93.40
53520;DHT22;39397;53.204;5.778;2023-05-02T10:19:38;11.50;93.60
53520;DHT22;39397;53.204;5.778;2023-05-02T10:22:06;11.50;93.60
53520;DHT22;39397;53.204;5.778;2023-05-02T10:24:33;11.40;93.60
53520;DHT22;39397;53.204;5.778;2023-05-02T10:26:59;11.40;93.50
53520;DHT22;39397;53.204;5.778;2023-05-02T10:29:30;11.30;93.80
53520;DHT22;39397;53.204;5.778;2023-05-02T10:31:57;11.20;94.80
53520;DHT22;39397;53.204;5.778;2023-05-02T10:34:23;11.10;95.50
53520;DHT22;39397;53.204;5.778;2023-05-02T10:36:50;11.50;96.00
53520;DHT22;39397;53.204;5.778;2023-05-02T10:39:17;11.20;95.30
53520;DHT22;39397;53.204;5.778;2023-05-02T10:41:44;11.30;95.80
53520;DHT22;39397;53.204;5.778;2023-05-02T10:44:10;11.10;96.40
53520;DHT22;39397;53.204;5.778;2023-05-02T10:46:39;11.40;96.90
53520;DHT22;39397;53.204;5.778;2023-05-02T10:49:12;11.30;95.60
53520;DHT22;39397;53.204;5.778;2023-05-02T10:51:40;11.70;96.10
53520;DHT22;39397;53.204;5.778;2023-05-02T10:54:21;11.20;95.60
53520;DHT22;39397;53.204;5.778;2023-05-02T11:01:56;11.70;94.10
53520;DHT22;39397;53.204;5.778;2023-05-02T11:04:23;11.80;94.50
53520;DHT22;39397;53.204;5.778;2023-05-02T11:09:30;11.80;94.10
53520;DHT22;39397;53.204;5.778;2023-05-02T11:11:57;11.90;94.80
53520;DHT22;39397;53.204;5.778;2023-05-02T11:19:30;12.20;94.30
53520;DHT22;39397;53.204;5.778;2023-05-02T11:24:52;11.70;94.30
53520;DHT22;39397;53.204;5.778;2023-05-02T11:30:05;11.90;94.30
53520;DHT22;39397;53.204;5.778;2023-05-02T11:35:25;11.80;94.40
53520;DHT22;39397;53.204;5.778;2023-05-02T11:38:02;11.80;95.40
53520;DHT22;39397;53.204;5.778;2023-05-02T11:40:29;12.00;94.70
53520;DHT22;39397;53.204;5.778;2023-05-02T11:42:56;11.70;95.60
53520;DHT22;39397;53.204;5.778;2023-05-02T11:45:35;11.70;95.40
53520;DHT22;39397;53.204;5.778;2023-05-02T11:48:03;11.70;94.90
53520;DHT22;39397;53.204;5.778;2023-05-02T11:50:30;11.80;95.50
53520;DHT22;39397;53.204;5.778;2023-05-02T11:52:55;11.80;95.40
53520;DHT22;39397;53.204;5.778;2023-05-02T11:55:21;12.50;95.10
53520;DHT22;39397;53.204;5.778;2023-05-02T11:57:47;12.30;94.20
53520;DHT22;39397;53.204;5.778;2023-05-02T12:00:13;12.30;94.30
53520;DHT22;39397;53.204;5.778;2023-05-02T12:02:41;12.40;93.50
53520;DHT22;39397;53.204;5.778;2023-05-02T12:05:09;12.20;93.50
53520;DHT22;39397;53.204;5.778;2023-05-02T12:07:54;12.20;93.90
53520;DHT22;39397;53.204;5.778;2023-05-02T12:10:19;12.10;94.90
53520;DHT22;39397;53.204;5.778;2023-05-02T12:12:45;11.80;95.20
53520;DHT22;39397;53.204;5.778;2023-05-02T12:15:12;11.90;95.00
53520;DHT22;39397;53.204;5.778;2023-05-02T12:17:45;11.60;94.90
53520;DHT22;39397;53.204;5.778;2023-05-02T12:20:11;11.50;95.50
53520;DHT22;39397;53.204;5.778;2023-05-02T12:22:37;11.50;95.60
53520;DHT22;39397;53.204;5.778;2023-05-02T12:25:04;11.80;95.20
53520;DHT22;39397;53.204;5.778;2023-05-02T12:27:30;11.60;95.10
53520;DHT22;39397;53.204;5.778;2023-05-02T12:29:57;12.80;95.30
53520;DHT22;39397;53.204;5.778;2023-05-02T12:32:29;11.70;94.80
53520;DHT22;39397;53.204;5.778;2023-05-02T12:34:55;11.70;94.30
53520;DHT22;39397;53.204;5.778;2023-05-02T12:37:22;11.70;93.80
53520;DHT22;39397;53.204;5.778;2023-05-02T12:39:49;11.80;93.90
53520;DHT22;39397;53.204;5.778;2023-05-02T12:42:19;11.60;93.80
53520;DHT22;39397;53.204;5.778;2023-05-02T12:44:46;11.60;93.40
53520;DHT22;39397;53.204;5.778;2023-05-02T12:47:16;11.70;93.10
53520;DHT22;39397;53.204;5.778;2023-05-02T12:49:57;11.90;91.90
53520;DHT22;39397;53.204;5.778;2023-05-02T12:52:46;11.80;92.50
53520;DHT22;39397;53.204;5.778;2023-05-02T12:55:20;11.80;91.50
53520;DHT22;39397;53.204;5.778;2023-05-02T12:57:49;11.90;92.20
53520;DHT22;39397;53.204;5.778;2023-05-02T13:00:18;11.90;92.10
53520;DHT22;39397;53.204;5.778;2023-05-02T13:02:44;11.90;92.20
53520;DHT22;39397;53.204;5.778;2023-05-02T13:05:17;11.80;92.20
53520;DHT22;39397;53.204;5.778;2023-05-02T13:07:43;11.80;92.30
53520;DHT22;39397;53.204;5.778;2023-05-02T13:10:09;11.90;92.30
53520;DHT22;39397;53.204;5.778;2023-05-02T13:12:36;12.10;92.00
53520;DHT22;39397;53.204;5.778;2023-05-02T13:15:03;12.40;92.40
53520;DHT22;39397;53.204;5.778;2023-05-02T13:17:29;12.60;92.00
53520;DHT22;39397;53.204;5.778;2023-05-02T13:19:55;12.50;91.90
53520;DHT22;39397;53.204;5.778;2023-05-02T13:22:22;12.50;92.10
53520;DHT22;39397;53.204;5.778;2023-05-02T13:24:47;12.60;92.20
53520;DHT22;39397;53.204;5.778;2023-05-02T13:27:13;12.90;92.40
53520;DHT22;39397;53.204;5.778;2023-05-02T13:29:39;12.90;92.60
53520;DHT22;39397;53.204;5.778;2023-05-02T13:32:05;12.90;92.70
53520;DHT22;39397;53.204;5.778;2023-05-02T13:34:30;12.80;92.80
53520;DHT22;39397;53.204;5.778;2023-05-02T13:36:56;12.50;93.10
53520;DHT22;39397;53.204;5.778;2023-05-02T13:39:22;12.30;93.60
53520;DHT22;39397;53.204;5.778;2023-05-02T13:41:48;12.30;93.90
53520;DHT22;39397;53.204;5.778;2023-05-02T13:44:13;12.10;94.30
53520;DHT22;39397;53.204;5.778;2023-05-02T13:46:39;12.20;94.50
53520;DHT22;39397;53.204;5.778;2023-05-02T13:49:05;12.30;94.10
53520;DHT22;39397;53.204;5.778;2023-05-02T13:51:31;12.30;93.70
53520;DHT22;39397;53.204;5.778;2023-05-02T13:53:57;12.30;93.30
53520;DHT22;39397;53.204;5.778;2023-05-02T13:56:23;12.20;93.30
53520;DHT22;39397;53.204;5.778;2023-05-02T13:58:49;12.30;93.80
53520;DHT22;39397;53.204;5.778;2023-05-02T14:01:14;12.20;93.80
53520;DHT22;39397;53.204;5.778;2023-05-02T14:03:40;12.40;93.70
53520;DHT22;39397;53.204;5.778;2023-05-02T14:06:06;12.60;93.50
53520;DHT22;39397;53.204;5.778;2023-05-02T14:08:32;12.10;93.30
53520;DHT22;39397;53.204;5.778;2023-05-02T14:10:58;13.00;93.10
53520;DHT22;39397;53.204;5.778;2023-05-02T14:13:23;13.00;93.10
53520;DHT22;39397;53.204;5.778;2023-05-02T14:15:49;11.90;92.60
53520;DHT22;39397;53.204;5.778;2023-05-02T14:18:15;13.00;92.50
53520;DHT22;39397;53.204;5.778;2023-05-02T14:20:41;12.90;92.20
53520;DHT22;39397;53.204;5.778;2023-05-02T14:23:07;12.80;92.00
53520;DHT22;39397;53.204;5.778;2023-05-02T14:25:35;12.90;91.90
53520;DHT22;39397;53.204;5.778;2023-05-02T14:28:01;13.10;91.10
53520;DHT22;39397;53.204;5.778;2023-05-02T14:30:27;13.00;90.40
53520;DHT22;39397;53.204;5.778;2023-05-02T14:32:53;13.00;91.30
53520;DHT22;39397;53.204;5.778;2023-05-02T14:35:19;13.00;91.90
53520;DHT22;39397;53.204;5.778;2023-05-02T14:37:45;13.00;92.00
53520;DHT22;39397;53.204;5.778;2023-05-02T14:40:12;13.10;91.60
53520;DHT22;39397;53.204;5.778;2023-05-02T14:42:39;13.10;90.80
53520;DHT22;39397;53.204;5.778;2023-05-02T14:45:05;13.40;91.20
53520;DHT22;39397;53.204;5.778;2023-05-02T14:47:32;13.60;90.40
53520;DHT22;39397;53.204;5.778;2023-05-02T14:49:59;13.80;89.50
53520;DHT22;39397;53.204;5.778;2023-05-02T14:52:25;13.80;90.90
53520;DHT22;39397;53.204;5.778;2023-05-02T14:54:51;14.40;90.40
53520;DHT22;39397;53.204;5.778;2023-05-02T14:57:17;14.40;89.20
53520;DHT22;39397;53.204;5.778;2023-05-02T14:59:43;14.40;88.70
53520;DHT22;39397;53.204;5.778;2023-05-02T15:02:09;14.60;88.50
53520;DHT22;39397;53.204;5.778;2023-05-02T15:04:36;15.00;88.40
53520;DHT22;39397;53.204;5.778;2023-05-02T15:07:02;15.30;88.00
53520;DHT22;39397;53.204;5.778;2023-05-02T15:09:28;14.70;87.80
53520;DHT22;39397;53.204;5.778;2023-05-02T15:11:55;15.40;86.30
53520;DHT22;39397;53.204;5.778;2023-05-02T15:14:22;15.80;85.50
53520;DHT22;39397;53.204;5.778;2023-05-02T15:16:48;15.70;86.10
53520;DHT22;39397;53.204;5.778;2023-05-02T15:19:14;15.80;85.90
53520;DHT22;39397;53.204;5.778;2023-05-02T15:21:39;15.40;86.30
53520;DHT22;39397;53.204;5.778;2023-05-02T15:24:05;15.40;85.80
53520;DHT22;39397;53.204;5.778;2023-05-02T15:26:31;15.70;85.00
53520;DHT22;39397;53.204;5.778;2023-05-02T15:28:57;15.70;84.30
53520;DHT22;39397;53.204;5.778;2023-05-02T15:31:23;15.70;83.40
53520;DHT22;39397;53.204;5.778;2023-05-02T15:33:49;15.80;81.60
53520;DHT22;39397;53.204;5.778;2023-05-02T15:36:15;16.00;81.40
53520;DHT22;39397;53.204;5.778;2023-05-02T15:38:41;16.30;81.20
53520;DHT22;39397;53.204;5.778;2023-05-02T15:41:10;16.60;79.30
53520;DHT22;39397;53.204;5.778;2023-05-02T15:43:36;16.10;79.40
53520;DHT22;39397;53.204;5.778;2023-05-02T15:46:02;16.20;78.90
53520;DHT22;39397;53.204;5.778;2023-05-02T15:48:29;16.30;78.50
53520;DHT22;39397;53.204;5.778;2023-05-02T15:50:57;15.90;78.70
53520;DHT22;39397;53.204;5.778;2023-05-02T15:53:23;15.40;79.60
53520;DHT22;39397;53.204;5.778;2023-05-02T15:55:50;14.90;81.40
53520;DHT22;39397;53.204;5.778;2023-05-02T15:58:16;14.30;82.80
53520;DHT22;39397;53.204;5.778;2023-05-02T16:00:43;13.70;83.90
53520;DHT22;39397;53.204;5.778;2023-05-02T16:03:09;13.30;85.10
53520;DHT22;39397;53.204;5.778;2023-05-02T16:05:37;13.20;86.00
53520;DHT22;39397;53.204;5.778;2023-05-02T16:08:03;13.30;86.50
53520;DHT22;39397;53.204;5.778;2023-05-02T16:10:29;13.30;87.20
53520;DHT22;39397;53.204;5.778;2023-05-02T16:12:55;13.50;88.20